OISF  Fasa  Airport

Fasa, Iran

Add Bookmark
ICAO OISF
IATA FAZ
Type Airport
Status Operational
Latitude
28° 53' 30" N
28.891800
Longitude
53° 43' 23" E
53.723301
Local (GMT +3.5 ) UTC
Sep 28, 2016 01:42 pm Sep 28, 2016 10:12
Sunrise-Sunset Local UTC
Begin Civil Twilight 05:22 am 01:52
Sunrise 05:45 am 02:15
Sunset 05:45 pm 14:15
End Civil Twilight 06:08 pm 14:38
VFR
VFR
MVFR
MVFR
IFR
IFR
LIFR
LIFR
Unknown
Unavailable

Current Weather

METAR Observed
OISF 280900Z 14010KT 9999 PO 35/M03 Q1015 Wed, Sep 28, 2016 @ 09:00 UTC
(1 Hour, 12 Minutes ago)
Wind Visibility Conditions
140° at 10 knots (19 kph) 10 km or more
  • Well-developed dust/sand whirls
Temperatures Readings Precipitation
Current Temp
35°C
95°F
Dewpoint
-3°C
27°F
Humidity 9%
Altimeter 29.97" Hg
Sea Level Pressure 1,015 mb
Field Elevation
1,383 m
4,537 ft
None Recorded
-
-

CheckWX.com is intended as a tool to help pilots better visualize weather data. It is not intended as a substitute for an official weather briefing obtained from a Flight Service Station. CheckWX.com does not meet the FAA requirements for an official pre-flight weather briefing. Therefore, it's important that pilots still call and obtain an official FSS pre-flight weather briefing.

© 2007-2016 CheckWX.com
10:12:44 UTC